01:30 Rennrad Moetz - Zirl - Moetz PLUS
Ort Moetz Datum 25.07.2016 11:20:11
Kategorie Rennrad
Distanz 50,42 Kilometer Steigung 106,0 Meter Gefälle -101,0 Meter
Gesamt Zeit 01:29:35 Aktiv 01:29:35 Pause 00:00:00
Durchs. Tempo 33,8 km/h Tempo max. 40,0 km/h Tempo min. 19,9 km/h
Kalorien 0 Durchs. HF 142 BPM HF max. 172 BPM
Wetter 26 °C PartClouds Min/Max: 24,0 °C/26,8 °C; Druck: 1019,0 mbar; Rel. Feuchte: 66,4%; Taupunkt: 19,0 °C; Windgeschwindigkeit: 3,2 km/h; Niederschlag: 0,0mm
Ausrüstung Bontrager - RXL Road
Continental - Grand Prix 4000 S II 25-622
Poison - Rennrad
Shimano - HG CN-7901 Dura Ace
Notiz Moetz - Zirl - Moetz PLUS ... trocken, leicht windig, flott ... garmin connect
Splits
Distanz (km) Gesamt Zeit Split Zeit Split Tempo Split Tempo Höhenprofil (m)
1,00 00:02:20 00:02:20 00:02:21 25,5 -9,72
2,00 00:04:16 00:01:55 00:01:56 31,1 -0,04
3,00 00:06:05 00:01:49 00:01:49 33,0 -0,65
4,00 00:07:55 00:01:49 00:01:49 32,9 -3,89
5,00 00:09:42 00:01:47 00:01:47 33,6 0,79
6,00 00:11:29 00:01:47 00:01:47 33,6 -0,41
7,00 00:13:22 00:01:52 00:01:53 31,9 -1,05
8,00 00:15:07 00:01:44 00:01:45 34,3 -7,65
9,00 00:16:50 00:01:42 00:01:42 35,1 -2,74
10,00 00:18:36 00:01:46 00:01:46 33,9 0,65
11,00 00:20:29 00:01:53 00:01:53 31,8 0,65
12,00 00:22:16 00:01:46 00:01:47 33,7 -6,51
13,00 00:24:00 00:01:44 00:01:44 34,6 -0,05
14,00 00:25:44 00:01:44 00:01:44 34,6 -0,09
15,00 00:27:29 00:01:44 00:01:45 34,4 -4,58
16,00 00:29:03 00:01:34 00:01:34 38,2 3,58
17,00 00:30:39 00:01:36 00:01:36 37,5 -8,05
18,00 00:32:24 00:01:44 00:01:45 34,4 0,00
19,00 00:34:08 00:01:44 00:01:44 34,5 -0,51
20,00 00:35:55 00:01:46 00:01:47 33,7 -1,02
21,00 00:37:44 00:01:49 00:01:49 33,0 -3,34
22,00 00:39:31 00:01:46 00:01:47 33,7 -3,78
23,00 00:41:23 00:01:52 00:01:53 32,0 10,97
24,00 00:43:15 00:01:51 00:01:52 32,2 -1,77
25,00 00:45:04 00:01:48 00:01:49 33,1 3,33
26,00 00:46:42 00:01:38 00:01:38 36,6 -13,45
27,00 00:48:29 00:01:46 00:01:47 33,8 5,92
28,00 00:50:09 00:01:39 00:01:40 36,0 2,60
29,00 00:51:45 00:01:36 00:01:37 37,2 0,43
30,00 00:53:26 00:01:40 00:01:41 35,7 0,63
31,00 00:55:09 00:01:42 00:01:43 35,0 0,09
32,00 00:56:52 00:01:43 00:01:43 34,9 7,93
33,00 00:58:39 00:01:46 00:01:47 33,7 -3,34
34,00 01:00:27 00:01:47 00:01:48 33,4 5,30
35,00 01:02:13 00:01:46 00:01:46 33,9 -0,95
36,00 01:03:56 00:01:42 00:01:43 35,0 0,39
37,00 01:05:42 00:01:46 00:01:46 34,0 6,55
38,00 01:07:36 00:01:53 00:01:54 31,7 -1,54
39,00 01:09:18 00:01:42 00:01:43 35,1 0,14
40,00 01:10:58 00:01:39 00:01:40 36,1 2,64
41,00 01:12:42 00:01:44 00:01:44 34,5 7,35
42,00 01:14:27 00:01:44 00:01:44 34,5 0,90
43,00 01:16:12 00:01:45 00:01:45 34,1 -0,02
44,00 01:17:58 00:01:45 00:01:46 34,1 0,13
45,00 01:19:43 00:01:44 00:01:45 34,3 4,04
46,00 01:21:27 00:01:44 00:01:45 34,4 0,39
47,00 01:23:12 00:01:44 00:01:45 34,4 -0,68
48,00 01:25:03 00:01:51 00:01:51 32,3 0,73
49,00 01:26:52 00:01:48 00:01:49 33,2 7,00
50,00 01:28:41 00:01:48 00:01:49 33,1 -2,47
50,44 01:29:35 00:00:53 00:02:03 29,2 5,15